createdAt,value
2022-08-25T00:01:32.310Z,27.97
2022-08-25T00:03:59.765Z,27.97
2022-08-25T00:06:26.554Z,27.89
2022-08-25T00:08:53.291Z,27.61
2022-08-25T00:11:23.913Z,27.89
2022-08-25T00:13:54.180Z,27.92
2022-08-25T00:16:22.558Z,27.65
2022-08-25T00:18:53.304Z,27.48
2022-08-25T00:21:20.175Z,27.60
2022-08-25T00:23:46.800Z,27.70
2022-08-25T00:26:14.990Z,27.47
2022-08-25T00:28:43.189Z,27.55
2022-08-25T00:31:15.881Z,27.62
2022-08-25T00:33:46.780Z,27.65
2022-08-25T00:36:14.369Z,27.57
2022-08-25T00:38:41.879Z,27.66
2022-08-25T00:41:11.350Z,27.41
2022-08-25T00:43:41.574Z,27.61
2022-08-25T00:46:09.539Z,27.56
2022-08-25T00:48:37.313Z,27.40
2022-08-25T00:51:05.265Z,27.46
2022-08-25T00:53:32.319Z,27.50
2022-08-25T00:55:59.188Z,27.48
2022-08-25T00:58:27.941Z,27.53
2022-08-25T01:00:56.122Z,27.34
2022-08-25T01:03:33.051Z,27.43
2022-08-25T01:06:02.083Z,26.95
2022-08-25T01:08:29.985Z,27.21
2022-08-25T01:11:02.942Z,27.38
2022-08-25T01:13:33.964Z,27.13
2022-08-25T01:16:00.999Z,27.27
2022-08-25T01:18:28.358Z,27.24
2022-08-25T01:20:57.433Z,27.09
2022-08-25T01:23:24.822Z,27.14
2022-08-25T01:26:16.988Z,27.25
2022-08-25T01:29:04.694Z,26.95
2022-08-25T01:31:32.189Z,26.99
2022-08-25T01:33:59.527Z,26.73
2022-08-25T01:36:27.889Z,26.71
2022-08-25T01:38:54.879Z,26.77
2022-08-25T01:41:27.714Z,26.65
2022-08-25T01:43:54.262Z,26.82
2022-08-25T01:46:21.250Z,26.63
2022-08-25T01:48:48.039Z,26.61
2022-08-25T01:51:15.791Z,26.77
2022-08-25T01:53:44.217Z,26.84
2022-08-25T01:56:13.855Z,26.79
2022-08-25T01:58:46.766Z,26.71
2022-08-25T02:01:17.629Z,26.32
2022-08-25T02:03:46.358Z,26.29
2022-08-25T02:06:17.665Z,26.47
2022-08-25T02:08:44.707Z,26.55
2022-08-25T02:11:13.482Z,26.58
2022-08-25T02:13:41.638Z,26.46
2022-08-25T02:16:10.223Z,26.56
2022-08-25T02:18:36.847Z,25.97
2022-08-25T02:21:03.642Z,25.96
2022-08-25T02:23:30.146Z,26.12
2022-08-25T02:25:57.301Z,26.17
2022-08-25T02:28:24.908Z,26.12
2022-08-25T02:30:53.011Z,26.07
2022-08-25T02:33:25.739Z,26.21
2022-08-25T02:35:52.334Z,26.21
2022-08-25T02:38:19.145Z,26.18
2022-08-25T02:40:45.876Z,26.03
2022-08-25T02:43:12.566Z,26.26
2022-08-25T02:45:39.096Z,26.29
2022-08-25T02:48:05.805Z,25.97
2022-08-25T02:50:33.283Z,26.27
2022-08-25T02:52:59.838Z,25.76
2022-08-25T02:55:26.726Z,25.73
2022-08-25T02:57:53.254Z,25.94
2022-08-25T03:00:20.002Z,26.05
2022-08-25T03:02:47.262Z,25.97
2022-08-25T03:05:14.892Z,25.69
2022-08-25T03:07:41.908Z,25.77
2022-08-25T03:10:14.548Z,25.85
2022-08-25T03:12:41.676Z,25.96
2022-08-25T03:15:12.912Z,26.02
2022-08-25T03:17:40.102Z,26.02
2022-08-25T03:20:08.136Z,26.05
2022-08-25T03:22:34.941Z,25.78
2022-08-25T03:25:24.073Z,25.95
2022-08-25T03:27:51.894Z,25.92
2022-08-25T03:30:19.259Z,25.88
2022-08-25T03:32:46.221Z,25.86
2022-08-25T03:35:12.878Z,25.92
2022-08-25T03:37:39.803Z,25.88
2022-08-25T03:40:09.380Z,25.76
2022-08-25T03:42:46.088Z,25.75
2022-08-25T03:45:14.060Z,25.72
2022-08-25T03:47:41.229Z,25.21
2022-08-25T03:50:10.181Z,25.55
2022-08-25T03:52:42.271Z,25.38
2022-08-25T03:55:12.336Z,25.37
2022-08-25T03:57:39.370Z,25.46
2022-08-25T04:00:09.486Z,25.36
2022-08-25T04:02:36.084Z,24.79
2022-08-25T04:05:03.339Z,24.87
2022-08-25T04:07:30.482Z,24.78
2022-08-25T04:09:57.047Z,24.75
2022-08-25T04:12:24.285Z,24.74
2022-08-25T04:14:51.011Z,24.92
2022-08-25T04:17:18.238Z,25.07
2022-08-25T04:19:44.798Z,24.91
2022-08-25T04:22:11.546Z,24.96
2022-08-25T04:24:40.205Z,25.21
2022-08-25T04:27:06.867Z,25.03
2022-08-25T04:29:33.890Z,24.88
2022-08-25T04:32:00.513Z,24.74
2022-08-25T04:34:29.761Z,24.76
2022-08-25T04:37:01.753Z,24.68
2022-08-25T04:39:28.841Z,24.72
2022-08-25T04:41:55.493Z,24.74
2022-08-25T04:44:22.285Z,24.83
2022-08-25T04:46:49.688Z,24.61
2022-08-25T04:49:16.252Z,24.36
2022-08-25T04:51:43.034Z,24.26
2022-08-25T04:54:12.681Z,24.08
2022-08-25T04:56:41.307Z,24.33
2022-08-25T04:59:12.173Z,24.12
2022-08-25T05:01:39.779Z,24.17
2022-08-25T05:04:08.298Z,24.42
2022-08-25T05:06:41.899Z,24.27
2022-08-25T05:09:09.236Z,24.14
2022-08-25T05:11:37.419Z,23.89
2022-08-25T05:14:04.532Z,24.25
2022-08-25T05:16:31.715Z,24.31
2022-08-25T05:18:58.819Z,24.11
2022-08-25T05:21:27.258Z,24.63
2022-08-25T05:23:57.806Z,24.74
2022-08-25T05:26:25.944Z,25.04
2022-08-25T05:28:54.275Z,25.19
2022-08-25T05:31:22.464Z,25.12
2022-08-25T05:33:49.124Z,24.99
2022-08-25T05:36:17.199Z,24.78
2022-08-25T05:38:44.153Z,24.71
2022-08-25T05:41:13.239Z,24.71
2022-08-25T05:43:41.273Z,24.88
2022-08-25T05:46:08.274Z,24.60
2022-08-25T05:48:35.531Z,24.99
2022-08-25T05:51:04.502Z,25.13
2022-08-25T05:53:33.694Z,24.89
2022-08-25T05:56:01.737Z,25.17
2022-08-25T05:58:29.688Z,24.62
2022-08-25T06:00:57.985Z,24.96
2022-08-25T06:03:24.672Z,24.79
2022-08-25T06:05:51.300Z,24.83
2022-08-25T06:08:17.821Z,25.01
2022-08-25T06:10:44.338Z,24.51
2022-08-25T06:13:10.969Z,25.27
2022-08-25T06:15:38.581Z,25.11
2022-08-25T06:18:05.189Z,24.94
2022-08-25T06:20:32.267Z,24.63
2022-08-25T06:22:59.383Z,24.44
2022-08-25T06:25:27.067Z,24.65
2022-08-25T06:27:54.886Z,24.49
2022-08-25T06:30:24.619Z,24.91
2022-08-25T06:32:55.908Z,24.96
2022-08-25T06:35:22.786Z,25.11
2022-08-25T06:37:49.409Z,25.03
2022-08-25T06:40:16.922Z,24.94
2022-08-25T06:42:48.383Z,25.42
2022-08-25T06:45:14.990Z,25.34
2022-08-25T06:47:41.645Z,25.15
2022-08-25T06:50:08.655Z,25.51
2022-08-25T06:52:35.690Z,25.92
2022-08-25T06:55:03.371Z,26.16
2022-08-25T06:57:31.693Z,26.56
2022-08-25T06:59:59.731Z,26.66
2022-08-25T07:02:26.369Z,26.65
2022-08-25T07:04:53.626Z,26.83
2022-08-25T07:07:20.204Z,27.11
2022-08-25T07:09:46.958Z,27.27
2022-08-25T07:12:13.756Z,26.55
2022-08-25T07:14:40.312Z,27.33
2022-08-25T07:17:23.573Z,27.40
2022-08-25T07:19:51.568Z,27.67
2022-08-25T07:22:24.290Z,27.44
2022-08-25T07:24:50.807Z,27.58
2022-08-25T07:27:17.315Z,27.78
2022-08-25T07:29:44.070Z,28.02
2022-08-25T07:32:10.898Z,27.85
2022-08-25T07:34:56.267Z,28.24
2022-08-25T07:37:47.512Z,27.80
2022-08-25T07:40:15.571Z,27.77
2022-08-25T07:42:42.360Z,27.80
2022-08-25T07:45:10.830Z,28.35
2022-08-25T07:47:38.961Z,28.86
2022-08-25T07:50:07.916Z,28.46
2022-08-25T07:52:34.630Z,28.48
2022-08-25T07:55:01.884Z,28.73
2022-08-25T07:57:29.613Z,29.02
2022-08-25T07:59:56.647Z,29.46
2022-08-25T08:02:24.738Z,29.32
2022-08-25T08:04:53.110Z,29.52
2022-08-25T08:07:25.791Z,29.22
2022-08-25T08:12:57.215Z,29.94
2022-08-25T08:15:23.853Z,30.00
2022-08-25T08:17:50.496Z,30.70
2022-08-25T08:20:17.793Z,30.17
2022-08-25T08:22:49.974Z,30.53
2022-08-25T08:25:21.334Z,30.78
2022-08-25T08:27:55.111Z,31.20
2022-08-25T08:30:23.822Z,30.75
2022-08-25T08:33:09.176Z,31.50
2022-08-25T08:35:36.493Z,31.73
2022-08-25T08:38:03.843Z,32.14
2022-08-25T08:40:31.336Z,31.93
2022-08-25T08:43:17.997Z,31.99
2022-08-25T08:45:53.104Z,32.38
2022-08-25T08:48:44.149Z,33.06
2022-08-25T08:51:23.193Z,32.05
2022-08-25T08:53:57.477Z,33.13
2022-08-25T08:56:31.592Z,33.49
2022-08-25T08:59:19.129Z,33.37
2022-08-25T09:01:52.463Z,33.09
2022-08-25T09:04:26.415Z,33.68
2022-08-25T09:06:55.264Z,34.30
2022-08-25T09:09:36.065Z,35.01
2022-08-25T09:12:25.908Z,35.08
2022-08-25T09:15:15.285Z,35.04
2022-08-25T09:18:04.635Z,35.90
2022-08-25T09:20:53.050Z,37.18
2022-08-25T09:23:34.909Z,36.60
2022-08-25T09:26:29.923Z,37.08
2022-08-25T09:29:16.655Z,37.67
2022-08-25T09:31:43.711Z,38.70
2022-08-25T09:34:31.942Z,41.76
2022-08-25T09:36:59.313Z,45.70
2022-08-25T09:39:27.510Z,49.48
2022-08-25T09:41:56.907Z,53.05
2022-08-25T09:44:26.874Z,53.87
2022-08-25T09:47:01.805Z,56.41
2022-08-25T09:49:44.356Z,57.30
2022-08-25T09:52:31.784Z,57.71
2022-08-25T09:55:24.687Z,56.51
2022-08-25T09:57:56.836Z,56.39
2022-08-25T10:00:34.785Z,54.16
2022-08-25T10:03:09.209Z,57.11
2022-08-25T10:05:48.571Z,59.92
2022-08-25T10:08:45.998Z,61.23
2022-08-25T10:11:15.541Z,58.73
2022-08-25T10:13:43.470Z,59.82
2022-08-25T10:16:17.708Z,55.01
2022-08-25T10:19:07.247Z,61.16
2022-08-25T10:21:36.412Z,60.00
2022-08-25T10:24:05.844Z,59.70
2022-08-25T10:27:03.342Z,60.74
2022-08-25T10:29:45.153Z,62.07
2022-08-25T10:32:46.947Z,60.54
2022-08-25T10:35:41.437Z,55.26
2022-08-25T10:38:35.256Z,57.58
2022-08-25T10:41:41.694Z,57.58
2022-08-25T10:44:54.167Z,61.05
2022-08-25T10:47:40.922Z,61.41
2022-08-25T10:51:07.107Z,64.23
2022-08-25T10:53:54.549Z,60.86
2022-08-25T10:56:31.817Z,60.27
2022-08-25T10:59:07.689Z,62.42
2022-08-25T11:02:03.384Z,62.19
2022-08-25T11:04:39.155Z,62.29
2022-08-25T11:07:16.662Z,61.76
2022-08-25T11:09:48.059Z,62.41
2022-08-25T11:12:20.088Z,61.96
2022-08-25T11:14:50.056Z,60.16
2022-08-25T11:17:25.854Z,58.78
2022-08-25T11:19:55.810Z,59.91
2022-08-25T11:22:37.843Z,61.72
2022-08-25T11:25:21.699Z,63.59
2022-08-25T11:28:08.214Z,64.35
2022-08-25T11:30:35.068Z,64.27
2022-08-25T11:33:01.780Z,65.10
2022-08-25T11:35:35.893Z,62.87
2022-08-25T11:38:18.266Z,61.98
2022-08-25T11:41:11.240Z,64.49
2022-08-25T11:44:15.720Z,65.14
2022-08-25T11:47:00.323Z,65.38
2022-08-25T11:49:58.366Z,66.72
2022-08-25T11:52:34.578Z,65.70
2022-08-25T11:55:16.775Z,57.72
2022-08-25T11:57:47.909Z,59.40
2022-08-25T12:00:29.144Z,60.12
2022-08-25T12:03:00.854Z,60.30
2022-08-25T12:05:28.098Z,57.87
2022-08-25T12:08:14.944Z,59.88
2022-08-25T12:10:59.487Z,59.72
2022-08-25T12:13:47.563Z,61.77
2022-08-25T12:16:36.179Z,59.26
2022-08-25T12:19:28.737Z,58.09
2022-08-25T12:22:03.557Z,52.37
2022-08-25T12:24:47.574Z,47.28
2022-08-25T12:27:27.073Z,44.35
2022-08-25T12:30:24.382Z,41.88
2022-08-25T12:33:15.270Z,42.06
2022-08-25T12:36:02.421Z,41.66
2022-08-25T12:38:50.902Z,41.31
2022-08-25T12:41:22.529Z,39.66
2022-08-25T12:43:53.746Z,39.07
2022-08-25T12:46:23.209Z,38.55
2022-08-25T12:49:00.493Z,36.70
2022-08-25T12:51:41.103Z,37.48
2022-08-25T12:54:36.514Z,38.68
2022-08-25T12:57:25.113Z,38.14
2022-08-25T12:59:58.642Z,37.73
2022-08-25T13:03:04.011Z,38.07
2022-08-25T13:05:45.238Z,37.30
2022-08-25T13:08:15.490Z,38.36
2022-08-25T13:11:14.210Z,38.29
2022-08-25T13:13:52.765Z,38.55
2022-08-25T13:16:26.966Z,38.42
2022-08-25T13:18:59.072Z,38.53
2022-08-25T13:21:39.193Z,37.10
2022-08-25T13:24:09.541Z,36.24
2022-08-25T13:26:48.393Z,36.65
2022-08-25T13:29:27.844Z,37.25
2022-08-25T13:31:57.459Z,37.84
2022-08-25T13:34:34.856Z,37.26
2022-08-25T13:37:25.085Z,37.34
2022-08-25T13:40:11.637Z,37.31
2022-08-25T13:42:45.130Z,37.63
2022-08-25T13:45:30.099Z,37.87
2022-08-25T13:47:59.055Z,38.38
2022-08-25T13:50:26.368Z,37.42
2022-08-25T13:52:56.085Z,37.37
2022-08-25T13:55:27.689Z,38.01
2022-08-25T13:57:57.842Z,38.00
2022-08-25T14:00:31.699Z,38.07
2022-08-25T14:02:59.737Z,37.33
2022-08-25T14:05:41.985Z,37.34
2022-08-25T14:08:38.719Z,37.15
2022-08-25T14:11:15.581Z,37.37
2022-08-25T14:13:45.553Z,37.44
2022-08-25T14:16:14.261Z,37.68
2022-08-25T14:18:58.784Z,37.55
2022-08-25T14:21:28.709Z,38.08
2022-08-25T14:23:55.961Z,37.98
2022-08-25T14:26:23.521Z,38.51
2022-08-25T14:28:53.297Z,37.13
2022-08-25T14:31:46.367Z,37.96
2022-08-25T14:34:16.865Z,38.51
2022-08-25T14:36:43.834Z,38.28
2022-08-25T14:39:11.637Z,38.29
2022-08-25T14:41:41.022Z,38.26
2022-08-25T14:44:09.914Z,38.53
2022-08-25T14:46:39.249Z,37.86
2022-08-25T14:49:12.887Z,37.43
2022-08-25T14:51:41.426Z,37.11
2022-08-25T14:54:14.879Z,37.81
2022-08-25T14:56:42.995Z,37.77
2022-08-25T14:59:09.978Z,38.68
2022-08-25T15:01:36.717Z,39.17
2022-08-25T15:04:08.415Z,39.01
2022-08-25T15:06:36.343Z,38.19
2022-08-25T15:09:11.663Z,38.39
2022-08-25T15:11:41.957Z,37.43
2022-08-25T15:14:10.785Z,37.07
2022-08-25T15:16:43.461Z,37.14
2022-08-25T15:19:14.402Z,37.09
2022-08-25T15:21:43.245Z,37.20
2022-08-25T15:24:12.375Z,37.26
2022-08-25T15:29:20.785Z,37.72
2022-08-25T15:31:47.850Z,37.36
2022-08-25T15:34:15.312Z,37.57
2022-08-25T15:36:42.229Z,38.09
2022-08-25T15:39:10.140Z,38.18
2022-08-25T15:41:37.962Z,38.08
2022-08-25T15:44:06.617Z,38.00
2022-08-25T15:46:36.260Z,37.75
2022-08-25T15:49:02.923Z,37.65
2022-08-25T15:51:29.814Z,37.91
2022-08-25T15:53:57.261Z,37.82
2022-08-25T15:56:26.735Z,37.37
2022-08-25T15:58:54.276Z,38.22
2022-08-25T16:01:26.644Z,37.95
2022-08-25T16:03:53.986Z,37.76
2022-08-25T16:06:20.620Z,37.26
2022-08-25T16:08:48.218Z,36.96
2022-08-25T16:11:29.587Z,37.35
2022-08-25T16:13:57.503Z,37.08
2022-08-25T16:16:26.337Z,37.48
2022-08-25T16:18:53.584Z,37.20
2022-08-25T16:21:25.631Z,37.12
2022-08-25T16:23:58.263Z,37.36
2022-08-25T16:26:26.519Z,36.90
2022-08-25T16:28:53.138Z,36.46
2022-08-25T16:31:20.658Z,36.36
2022-08-25T16:33:47.306Z,35.45
2022-08-25T16:36:25.405Z,36.11
2022-08-25T16:38:55.154Z,35.97
2022-08-25T16:41:27.192Z,35.58
2022-08-25T16:43:54.153Z,35.43
2022-08-25T16:46:23.802Z,34.97
2022-08-25T16:48:50.774Z,35.14
2022-08-25T16:51:22.745Z,34.83
2022-08-25T16:54:15.164Z,34.95
2022-08-25T16:56:48.817Z,35.16
2022-08-25T16:59:22.060Z,34.76
2022-08-25T17:01:51.123Z,34.45
2022-08-25T17:04:17.847Z,34.32
2022-08-25T17:06:51.771Z,34.14
2022-08-25T17:09:23.939Z,34.22
2022-08-25T17:11:54.170Z,34.06
2022-08-25T17:14:21.230Z,34.20
2022-08-25T17:16:48.572Z,33.96
2022-08-25T17:19:17.382Z,33.73
2022-08-25T17:21:48.332Z,33.56
2022-08-25T17:24:17.064Z,33.66
2022-08-25T17:26:46.092Z,33.74
2022-08-25T17:29:13.021Z,33.78
2022-08-25T17:31:40.193Z,33.73
2022-08-25T17:34:10.405Z,33.61
2022-08-25T17:36:37.843Z,33.59
2022-08-25T17:39:08.649Z,33.68
2022-08-25T17:41:37.581Z,33.46
2022-08-25T17:44:05.455Z,33.71
2022-08-25T17:46:32.481Z,33.82
2022-08-25T17:48:59.207Z,33.74
2022-08-25T17:51:25.834Z,33.84
2022-08-25T17:53:52.819Z,33.96
2022-08-25T17:56:21.915Z,33.71
2022-08-25T17:58:49.837Z,33.68
2022-08-25T18:01:23.070Z,33.66
2022-08-25T18:03:49.944Z,33.85
2022-08-25T18:06:17.211Z,33.83
2022-08-25T18:08:45.002Z,33.67
2022-08-25T18:11:19.728Z,33.42
2022-08-25T18:13:46.990Z,33.38
2022-08-25T18:16:13.646Z,33.29
2022-08-25T18:18:41.233Z,33.30
2022-08-25T18:21:12.847Z,33.24
2022-08-25T18:23:39.488Z,32.94
2022-08-25T18:26:06.832Z,33.00
2022-08-25T18:28:33.397Z,32.91
2022-08-25T18:31:01.869Z,32.77
2022-08-25T18:33:29.907Z,32.78
2022-08-25T18:35:57.634Z,32.67
2022-08-25T18:38:43.165Z,32.86
2022-08-25T18:41:10.952Z,32.77
2022-08-25T18:43:39.025Z,32.39
2022-08-25T18:46:06.957Z,32.59
2022-08-25T18:48:34.895Z,32.57
2022-08-25T18:51:02.099Z,32.35
2022-08-25T18:53:30.621Z,32.26
2022-08-25T18:56:05.636Z,32.14
2022-08-25T18:58:32.451Z,32.20
2022-08-25T19:01:00.813Z,32.16
2022-08-25T19:03:28.203Z,32.20
2022-08-25T19:05:57.259Z,32.18
2022-08-25T19:08:24.118Z,32.13
2022-08-25T19:10:52.791Z,32.07
2022-08-25T19:13:22.408Z,32.03
2022-08-25T19:15:50.929Z,31.94
2022-08-25T19:18:18.840Z,31.98
2022-08-25T19:20:52.573Z,31.81
2022-08-25T19:23:19.566Z,31.90
2022-08-25T19:25:46.757Z,31.86
2022-08-25T19:28:13.422Z,31.80
2022-08-25T19:30:50.527Z,31.75
2022-08-25T19:33:42.731Z,31.62
2022-08-25T19:36:06.328Z,31.69
2022-08-25T19:38:37.156Z,31.63
2022-08-25T19:41:13.946Z,31.50
2022-08-25T19:43:55.591Z,31.48
2022-08-25T19:46:32.780Z,31.47
2022-08-25T19:49:22.416Z,31.36
2022-08-25T19:51:51.404Z,31.30
2022-08-25T19:54:22.047Z,31.37
2022-08-25T19:56:54.772Z,31.25
2022-08-25T19:59:25.367Z,31.26
2022-08-25T20:01:53.220Z,31.19
2022-08-25T20:04:20.143Z,31.25
2022-08-25T20:06:48.275Z,31.17
2022-08-25T20:09:35.497Z,31.09
2022-08-25T20:12:03.637Z,31.08
2022-08-25T20:14:33.931Z,31.06
2022-08-25T20:17:01.712Z,30.96
2022-08-25T20:19:30.474Z,30.72
2022-08-25T20:21:57.246Z,30.55
2022-08-25T20:24:43.630Z,30.72
2022-08-25T20:27:10.694Z,30.61
2022-08-25T20:29:37.440Z,30.45
2022-08-25T20:32:05.136Z,30.51
2022-08-25T20:34:32.575Z,30.47
2022-08-25T20:37:00.869Z,30.26
2022-08-25T20:39:27.476Z,30.31
2022-08-25T20:41:54.155Z,30.29
2022-08-25T20:44:23.192Z,30.21
2022-08-25T20:46:51.509Z,30.17
2022-08-25T20:49:20.146Z,30.13
2022-08-25T20:51:46.758Z,30.18
2022-08-25T20:54:17.164Z,30.20
2022-08-25T20:56:44.014Z,30.19
2022-08-25T20:59:11.649Z,30.25
2022-08-25T21:01:39.834Z,30.17
2022-08-25T21:04:08.690Z,30.22
2022-08-25T21:06:36.005Z,30.24
2022-08-25T21:09:05.794Z,30.23
2022-08-25T21:11:39.893Z,29.96
2022-08-25T21:14:07.010Z,30.13
2022-08-25T21:16:36.661Z,30.10
2022-08-25T21:19:04.620Z,30.05
2022-08-25T21:21:38.011Z,29.99
2022-08-25T21:24:07.362Z,29.68
2022-08-25T21:26:37.293Z,29.67
2022-08-25T21:29:15.318Z,29.54
2022-08-25T21:31:42.534Z,29.48
2022-08-25T21:34:10.967Z,29.62
2022-08-25T21:36:39.065Z,29.60
2022-08-25T21:39:05.879Z,29.58
2022-08-25T21:41:33.679Z,29.44
2022-08-25T21:44:01.402Z,29.46
2022-08-25T21:46:30.721Z,29.46
2022-08-25T21:48:58.913Z,29.56
2022-08-25T21:51:33.353Z,29.65
2022-08-25T21:54:11.700Z,30.09
2022-08-25T21:56:44.391Z,30.04
2022-08-25T21:59:13.654Z,30.06
2022-08-25T22:01:41.055Z,30.07
2022-08-25T22:04:09.070Z,29.96
2022-08-25T22:06:36.156Z,29.88
2022-08-25T22:09:04.976Z,29.95
2022-08-25T22:11:33.937Z,29.64
2022-08-25T22:14:03.545Z,29.37
2022-08-25T22:16:33.031Z,29.12
2022-08-25T22:18:59.868Z,28.97
2022-08-25T22:21:31.900Z,29.09
2022-08-25T22:23:59.393Z,29.18
2022-08-25T22:26:29.094Z,29.16
2022-08-25T22:28:57.129Z,29.19
2022-08-25T22:31:23.980Z,29.19
2022-08-25T22:33:51.640Z,29.23
2022-08-25T22:36:20.625Z,29.25
2022-08-25T22:38:47.819Z,29.21
2022-08-25T22:41:19.032Z,29.07
2022-08-25T22:43:49.157Z,28.83
2022-08-25T22:46:17.144Z,28.98
2022-08-25T22:48:44.514Z,28.74
2022-08-25T22:51:15.345Z,28.72
2022-08-25T22:53:43.198Z,28.74
2022-08-25T22:56:10.835Z,28.50
2022-08-25T22:58:39.156Z,28.64
2022-08-25T23:01:13.079Z,28.46
2022-08-25T23:03:44.200Z,28.08
2022-08-25T23:06:24.816Z,27.77
2022-08-25T23:08:53.586Z,27.74
2022-08-25T23:11:21.466Z,27.63
2022-08-25T23:13:48.974Z,27.62
2022-08-25T23:16:17.123Z,27.55
2022-08-25T23:18:45.002Z,27.02
2022-08-25T23:21:38.048Z,27.44
2022-08-25T23:24:10.953Z,27.20
2022-08-25T23:26:42.511Z,27.41
2022-08-25T23:29:18.648Z,27.96
2022-08-25T23:31:48.799Z,28.02
2022-08-25T23:34:16.693Z,27.93
2022-08-25T23:36:44.567Z,28.05
2022-08-25T23:39:11.296Z,28.04
2022-08-25T23:41:38.474Z,28.10
2022-08-25T23:44:06.207Z,27.99
2022-08-25T23:46:35.241Z,27.66
2022-08-25T23:49:03.996Z,27.81
2022-08-25T23:51:33.745Z,27.86
2022-08-25T23:54:05.781Z,27.96
2022-08-25T23:56:34.318Z,27.73
2022-08-25T23:59:03.252Z,27.38
